Time;durP1;ratioP1;P1;durP2;ratioP2;P2;SDS_P1;SDS_P2;PMS_P1;PMS_P2;Temp;Humidity;BMP_temperature;BMP_pressure;BME280_temperature;BME280_humidity;BME280_pressure;Samples;Min_cycle;Max_cycle;Signal;HPM_P1;HPM_P2
2023/10/17 00:01:57;;;;;;;;;;;;;;;;;;;;;
2023/10/17 00:05:25;;;;;;;21.20;8.00;;;;;;;6.11;67.26;99598.65;105649;1268;108084;-91
2023/10/17 00:08:37;;;;;;;;;;;;;;;;;;;;;
2023/10/17 00:15:48;;;;;;;18.80;7.00;;;;;;;5.98;67.30;99595.69;105682;1274;110844;-90
2023/10/17 00:19:22;;;;;;;20.40;7.80;;;;;;;5.95;67.30;99597.91;105708;1268;95533;-92
2023/10/17 00:22:57;;;;;;;18.10;8.20;;;;;;;5.96;67.35;99596.27;105208;1273;108404;-91
2023/10/17 00:26:24;;;;;;;15.80;7.10;;;;;;;5.95;67.49;99589.84;104619;1274;95386;-89
2023/10/17 00:29:24;;;;;;;18.00;7.40;;;;;;;5.94;67.53;99588.45;105088;1274;95200;-90
2023/10/17 00:33:23;;;;;;;17.90;7.10;;;;;;;5.93;67.48;99587.80;105458;1273;108573;-89
2023/10/17 00:36:25;;;;;;;;;;;;;;;;;;;;;
2023/10/17 00:39:47;;;;;;;17.50;7.10;;;;;;;5.98;67.58;99581.62;105646;1270;106132;-92
2023/10/17 00:43:06;;;;;;;19.80;7.10;;;;;;;5.92;67.47;99579.90;106169;1264;95739;-91
2023/10/17 00:46:43;;;;;;;16.70;7.10;;;;;;;5.88;67.31;99583.11;106111;1258;95186;-90
2023/10/17 00:50:26;;;;;;;17.00;6.70;;;;;;;5.88;67.71;99588.20;106023;1262;108508;-90
2023/10/17 00:52:49;;;;;;;18.80;6.90;;;;;;;5.88;67.65;99586.98;106241;1262;95875;-90
2023/10/17 01:00:50;;;;;;;;;;;;;;;;;;;;;
2023/10/17 01:03:49;;;;;;;13.80;6.10;;;;;;;5.91;67.55;99584.18;105955;1265;95196;-91
2023/10/17 01:06:44;;;;;;;16.40;6.40;;;;;;;5.84;67.58;99588.39;106017;1270;107212;-90
2023/10/17 01:10:00;;;;;;;;;;;;;;;;;;;;;
2023/10/17 01:13:06;;;;;;;20.00;6.30;;;;;;;5.75;67.68;99588.41;106281;1257;107625;-91
2023/10/17 01:16:12;;;;;;;;;;;;;;;;;;;;;
2023/10/17 01:19:56;;;;;;;;;;;;;;;;;;;;;
2023/10/17 01:22:55;;;;;;;;;;;;;;;;;;;;;
2023/10/17 01:26:17;;;;;;;17.40;6.50;;;;;;;5.70;67.74;99594.63;106408;1262;96217;-91
2023/10/17 01:29:38;;;;;;;17.10;6.80;;;;;;;5.69;67.85;99595.39;106201;1259;107890;-91
2023/10/17 01:36:44;;;;;;;17.20;6.50;;;;;;;5.72;67.78;99598.79;106186;1262;95239;-91
2023/10/17 01:56:13;;;;;;;20.30;7.40;;;;;;;5.36;67.76;99609.46;104614;1277;95268;-80
2023/10/17 02:04:49;;;;;;;;;;;;;;;;;;;;;
2023/10/17 02:08:41;;;;;;;;;;;;;;;;;;;;;
2023/10/17 02:13:45;;;;;;;;;;;;;;;;;;;;;
2023/10/17 02:23:39;;;;;;;;;;;;;;;;;;;;;
2023/10/17 02:46:40;;;;;;;;;;;;;;;;;;;;;
2023/10/17 03:01:12;;;;;;;18.80;7.70;;;;;;;5.54;67.68;99641.41;104220;1285;651232;-91
2023/10/17 03:04:36;;;;;;;19.30;7.90;;;;;;;5.56;67.71;99647.51;102246;1260;5381126;-89
2023/10/17 03:07:30;;;;;;;19.10;7.40;;;;;;;5.47;67.80;99646.63;106455;1262;94268;-90
2023/10/17 03:10:53;;;;;;;21.50;8.10;;;;;;;5.41;67.79;99652.83;106648;1255;106897;-90
2023/10/17 03:13:52;;;;;;;21.70;8.40;;;;;;;5.34;67.78;99658.94;106740;1253;95492;-91
2023/10/17 03:16:44;;;;;;;21.00;7.90;;;;;;;5.30;67.93;99665.09;106479;1257;107757;-90
2023/10/17 03:19:41;;;;;;;18.60;8.20;;;;;;;5.28;67.86;99669.25;106676;1254;94380;-91
2023/10/17 03:23:16;;;;;;;20.00;8.90;;;;;;;5.20;67.82;99672.20;106743;1255;94286;-91
2023/10/17 03:26:16;;;;;;;20.10;8.10;;;;;;;5.07;67.88;99672.89;106688;1253;107321;-91
2023/10/17 03:29:26;;;;;;;20.40;8.70;;;;;;;5.01;67.91;99670.31;106859;1254;95247;-93
2023/10/17 03:33:08;;;;;;;19.60;9.20;;;;;;;4.99;67.92;99674.78;106698;1258;107810;-91
2023/10/17 03:47:16;;;;;;;22.70;11.10;;;;;;;5.36;67.67;99672.79;103680;1290;652193;-91
2023/10/17 03:50:14;;;;;;;24.10;10.50;;;;;;;5.28;67.70;99678.55;105991;1262;141007;-90
2023/10/17 03:52:43;;;;;;;22.20;10.20;;;;;;;5.23;67.80;99678.39;106162;1259;94324;-89
2023/10/17 03:55:32;;;;;;;20.60;9.20;;;;;;;5.18;67.78;99678.77;106119;1259;107267;-89
2023/10/17 03:58:27;;;;;;;20.40;9.00;;;;;;;5.10;67.82;99674.20;105985;1262;95344;-89
2023/10/17 04:01:21;;;;;;;22.00;8.70;;;;;;;4.99;67.73;99676.02;106506;1261;107936;-89
2023/10/17 04:04:02;;;;;;;;;;;;;;;4.88;67.67;99673.45;106724;1267;93907;-91
2023/10/17 04:06:51;;;;;;;19.20;8.40;;;;;;;4.80;67.74;99670.44;105486;1262;94320;-82
2023/10/17 04:09:26;;;;;;;17.70;7.30;;;;;;;4.78;67.66;99668.58;105365;1261;107189;-82
2023/10/17 04:12:05;;;;;;;22.10;8.40;;;;;;;4.76;67.79;99668.98;105066;1261;94362;-82
2023/10/17 04:14:52;;;;;;;21.70;9.30;;;;;;;4.72;67.84;99668.97;105067;1266;107725;-83
2023/10/17 04:17:29;;;;;;;19.10;8.70;;;;;;;4.68;67.72;99667.92;105274;1267;95340;-85
2023/10/17 04:20:11;;;;;;;20.10;9.30;;;;;;;4.62;67.72;99667.60;105473;1263;95177;-89
2023/10/17 04:22:40;;;;;;;22.40;10.40;;;;;;;4.58;67.63;99666.52;105137;1268;108631;-85
2023/10/17 04:28:01;;;;;;;25.60;11.60;;;;;;;4.45;67.49;99663.02;105164;1263;107441;-87
2023/10/17 04:30:30;;;;;;;23.40;10.80;;;;;;;4.36;67.54;99661.03;105142;1266;95787;-89
2023/10/17 04:33:13;;;;;;;26.20;11.20;;;;;;;4.32;67.72;99664.87;105362;1265;95236;-87
2023/10/17 04:35:46;;;;;;;21.50;10.10;;;;;;;4.33;67.72;99663.77;105094;1268;109128;-87
2023/10/17 04:38:19;;;;;;;23.60;10.60;;;;;;;4.31;67.81;99664.36;105276;1261;95514;-86
2023/10/17 04:41:10;;;;;;;22.90;10.00;;;;;;;4.33;67.78;99668.18;105760;1266;107286;-88
2023/10/17 04:43:55;;;;;;;23.50;9.80;;;;;;;4.32;67.48;99667.67;106037;1261;95283;-85
2023/10/17 04:46:28;;;;;;;22.00;10.00;;;;;;;4.24;67.56;99672.20;105718;1268;95171;-88
2023/10/17 04:49:07;;;;;;;21.90;10.10;;;;;;;4.12;67.62;99669.96;105468;1267;108501;-85
2023/10/17 04:51:42;;;;;;;25.60;11.10;;;;;;;4.07;67.54;99673.17;105045;1265;95335;-84
2023/10/17 04:57:00;;;;;;;24.30;11.20;;;;;;;4.09;67.63;99673.97;105224;1262;95363;-87
2023/10/17 05:02:27;;;;;;;24.90;12.20;;;;;;;4.13;67.80;99678.19;105327;1268;107984;-86
2023/10/17 06:17:42;;;;;;;34.10;18.10;;;;;;;5.09;68.53;99743.31;104867;1262;108505;-81
2023/10/17 06:20:14;;;;;;;33.70;17.40;;;;;;;5.15;68.51;99746.05;108137;1259;93133;-79
2023/10/17 06:33:43;;;;;;;38.40;19.50;;;;;;;5.50;68.90;99756.98;104967;1262;95285;-79
2023/10/17 06:36:16;;;;;;;36.30;21.80;;;;;;;5.55;68.74;99759.07;105566;1263;95242;-80
2023/10/17 06:38:47;;;;;;;35.50;18.10;;;;;;;5.60;68.90;99758.87;108128;1259;107237;-78
2023/10/17 06:41:16;;;;;;;33.90;16.70;;;;;;;5.66;68.97;99760.54;108207;1259;95752;-78
2023/10/17 06:43:49;;;;;;;30.20;14.50;;;;;;;5.73;68.98;99762.20;105604;1263;107855;-79
2023/10/17 06:46:28;;;;;;;27.90;13.00;;;;;;;5.79;69.13;99759.34;108069;1258;93349;-77
2023/10/17 06:48:58;;;;;;;28.10;13.70;;;;;;;5.85;69.00;99759.98;106471;1262;95205;-79
2023/10/17 06:51:36;;;;;;;25.90;13.00;;;;;;;5.89;69.07;99762.23;105377;1260;107497;-81
2023/10/17 06:54:06;;;;;;;29.70;12.40;;;;;;;5.97;69.26;99760.32;104976;1260;95211;-80
2023/10/17 06:56:41;;;;;;;27.40;13.30;;;;;;;6.03;69.42;99760.81;105234;1259;105757;-77
2023/10/17 06:59:24;;;;;;;27.50;11.80;;;;;;;6.08;69.37;99763.08;104996;1259;95330;-80
2023/10/17 07:04:42;;;;;;;21.60;10.40;;;;;;;6.18;69.29;99764.74;104876;1259;108350;-80
2023/10/17 07:07:11;;;;;;;78.10;37.80;;;;;;;6.23;69.42;99765.94;105327;1261;95211;-81
2023/10/17 07:09:39;;;;;;;97.40;46.80;;;;;;;6.27;69.44;99765.61;105224;1265;106948;-80
2023/10/17 07:12:13;;;;;;;109.60;51.20;;;;;;;6.31;69.38;99764.21;105240;1262;96171;-82
2023/10/17 07:14:48;;;;;;;82.40;38.00;;;;;;;6.37;69.39;99764.46;105155;1265;95215;-81
2023/10/17 07:17:27;;;;;;;40.70;20.00;;;;;;;6.44;69.27;99761.69;105389;1258;108242;-81
2023/10/17 07:20:12;;;;;;;36.50;18.80;;;;;;;6.51;69.56;99758.77;105361;1262;96214;-80
2023/10/17 07:22:41;;;;;;;36.40;18.70;;;;;;;6.54;69.57;99755.58;104989;1276;107662;-80
2023/10/17 07:25:19;;;;;;;28.00;13.20;;;;;;;6.59;69.60;99758.36;105216;1264;95259;-80
2023/10/17 07:27:48;;;;;;;26.10;12.20;;;;;;;6.62;69.70;99759.33;104882;1260;95260;-81
2023/10/17 07:30:35;;;;;;;25.40;11.60;;;;;;;6.66;69.65;99762.64;105360;1260;109313;-80
2023/10/17 07:33:05;;;;;;;27.60;11.90;;;;;;;6.71;69.52;99767.73;105123;1259;95219;-82
2023/10/17 07:35:36;;;;;;;26.70;11.20;;;;;;;6.75;69.59;99768.58;105165;1262;107332;-81
2023/10/17 07:38:04;;;;;;;24.70;11.30;;;;;;;6.80;69.81;99768.52;104939;1262;95340;-81
2023/10/17 07:40:33;;;;;;;25.50;11.80;;;;;;;6.85;69.74;99767.41;105465;1259;95747;-79
2023/10/17 07:43:05;;;;;;;27.40;12.30;;;;;;;6.90;69.72;99763.50;105406;1263;108046;-80
2023/10/17 07:45:40;;;;;;;27.20;12.70;;;;;;;6.96;69.72;99762.16;105226;1265;95304;-83
2023/10/17 07:48:25;;;;;;;24.50;10.70;;;;;;;6.97;69.74;99763.72;105099;1262;107182;-80
2023/10/17 07:51:00;;;;;;;26.10;12.00;;;;;;;7.00;69.62;99769.20;105239;1265;95296;-80
2023/10/17 07:53:32;;;;;;;24.10;12.90;;;;;;;7.04;69.69;99772.74;105218;1259;95261;-80
2023/10/17 07:56:12;;;;;;;24.90;12.30;;;;;;;7.07;69.99;99775.06;105446;1265;108916;-81
2023/10/17 07:58:45;;;;;;;25.60;11.60;;;;;;;7.08;69.78;99776.24;105566;1262;96234;-80
2023/10/17 08:01:17;;;;;;;25.50;11.90;;;;;;;7.12;69.77;99775.52;105513;1263;107594;-79
2023/10/17 08:03:54;;;;;;;22.80;11.20;;;;;;;7.17;69.76;99777.05;105324;1258;95320;-80
2023/10/17 08:06:29;;;;;;;26.20;11.80;;;;;;;7.22;69.85;99778.59;105466;1262;94507;-80
2023/10/17 08:08:59;;;;;;;23.80;11.20;;;;;;;7.24;69.72;99777.96;105205;1262;108630;-80
2023/10/17 08:11:28;;;;;;;25.00;10.70;;;;;;;7.28;69.77;99776.02;105449;1265;95500;-80
2023/10/17 08:14:09;;;;;;;21.10;9.40;;;;;;;7.30;69.81;99775.55;105350;1259;107250;-79
2023/10/17 08:16:40;;;;;;;25.50;9.50;;;;;;;7.32;69.68;99773.88;105140;1264;98015;-79
2023/10/17 08:19:29;;;;;;;24.40;11.30;;;;;;;7.37;69.52;99778.40;105152;1259;97414;-81
2023/10/17 08:27:17;;;;;;;23.30;9.60;;;;;;;7.56;69.70;99773.10;105349;1262;107667;-79
2023/10/17 08:29:50;;;;;;;22.40;9.10;;;;;;;7.60;69.54;99774.63;104974;1262;97229;-81
2023/10/17 08:34:59;;;;;;;21.60;7.80;;;;;;;7.67;69.48;99773.26;104768;1259;109906;-79
2023/10/17 08:37:28;;;;;;;19.50;7.70;;;;;;;7.68;69.55;99774.08;105198;1262;96520;-82
2023/10/17 08:39:57;;;;;;;21.30;9.30;;;;;;;7.73;69.47;99770.16;104893;1274;107676;-81
2023/10/17 08:42:31;;;;;;;19.90;8.60;;;;;;;7.75;69.40;99772.52;105293;1264;96659;-80
2023/10/17 08:45:05;;;;;;;20.00;7.60;;;;;;;7.79;69.63;99768.98;105125;1264;96674;-81
2023/10/17 08:47:35;;;;;;;17.60;6.80;;;;;;;7.84;69.48;99770.11;105134;1263;109705;-81
2023/10/17 08:50:04;;;;;;;18.00;6.10;;;;;;;7.91;69.69;99770.46;105186;1259;96591;-81
2023/10/17 08:52:37;;;;;;;19.00;6.50;;;;;;;7.99;69.52;99773.27;105332;1260;107201;-81
2023/10/17 08:55:06;;;;;;;16.90;6.70;;;;;;;8.05;69.44;99766.41;105208;1265;97169;-80
2023/10/17 08:57:39;;;;;;;20.30;8.10;;;;;;;8.12;69.39;99765.38;105204;1259;96610;-82
2023/10/17 09:02:55;;;;;;;20.00;7.20;;;;;;;8.29;69.58;99770.14;105273;1259;96595;-81
2023/10/17 09:05:27;;;;;;;15.80;5.90;;;;;;;8.38;69.42;99767.02;105206;1259;107233;-82
2023/10/17 09:08:03;;;;;;;18.40;6.70;;;;;;;8.44;69.18;99766.91;105084;1262;97924;-81
2023/10/17 09:10:38;;;;;;;13.00;5.80;;;;;;;8.51;69.51;99770.79;105203;1262;97443;-79
2023/10/17 09:15:50;;;;;;;22.20;6.90;;;;;;;8.70;69.28;99770.37;105120;1259;97283;-81
2023/10/17 09:18:31;;;;;;;18.00;6.50;;;;;;;8.81;69.59;99769.73;104836;1266;107734;-80
2023/10/17 09:21:04;;;;;;;20.90;6.60;;;;;;;8.94;69.60;99767.48;105174;1274;96800;-81
2023/10/17 09:23:32;;;;;;;19.40;6.50;;;;;;;9.07;69.62;99768.51;105277;1262;96619;-81
2023/10/17 09:26:07;;;;;;;14.60;5.60;;;;;;;9.19;69.53;99768.23;105288;1265;109993;-81
2023/10/17 09:28:36;;;;;;;14.10;5.30;;;;;;;9.32;69.46;99770.70;105182;1261;98129;-80
2023/10/17 09:31:06;;;;;;;15.40;5.80;;;;;;;9.41;69.49;99768.04;105379;1262;107343;-81
2023/10/17 09:33:43;;;;;;;17.80;5.90;;;;;;;9.49;69.41;99771.30;105357;1262;96679;-80
2023/10/17 09:36:19;;;;;;;17.60;5.90;;;;;;;9.58;69.36;99770.29;105135;1266;97516;-82
2023/10/17 09:38:55;;;;;;;20.00;6.90;;;;;;;9.64;69.32;99770.10;105222;1260;112180;-80
2023/10/17 09:41:23;;;;;;;17.60;6.90;;;;;;;9.65;69.37;99764.56;104881;1266;96681;-81
2023/10/17 09:43:53;;;;;;;19.80;6.60;;;;;;;9.67;69.32;99766.23;104986;1272;106878;-80
2023/10/17 09:46:27;;;;;;;14.20;5.70;;;;;;;9.67;69.31;99762.85;105120;1264;96605;-83
2023/10/17 09:49:00;;;;;;;15.80;6.30;;;;;;;9.67;69.34;99764.77;105273;1260;96637;-80
2023/10/17 09:51:45;;;;;;;;;;;;;;;;;;;;;
2023/10/17 09:54:21;;;;;;;12.90;5.50;;;;;;;9.72;69.16;99759.75;105349;1259;96597;-78
2023/10/17 09:56:53;;;;;;;19.40;6.10;;;;;;;9.73;69.12;99761.13;105362;1260;107635;-79
2023/10/17 09:59:29;;;;;;;16.70;6.50;;;;;;;9.71;69.16;99760.01;105791;1263;97055;-77
2023/10/17 10:04:01;;;;;;;17.50;6.80;;;;;;;9.68;69.07;99754.10;103130;1292;639675;-79
2023/10/17 10:06:32;;;;;;;19.90;6.50;;;;;;;9.66;68.97;99750.86;107884;1265;92275;-79
2023/10/17 10:09:06;;;;;;;23.60;7.60;;;;;;;9.68;69.04;99754.31;107528;1269;92991;-79
2023/10/17 10:11:51;;;;;;;19.80;7.20;;;;;;;9.71;69.12;99753.05;105606;1257;107171;-81
2023/10/17 10:14:27;;;;;;;33.70;14.50;;;;;;;9.72;69.11;99749.29;105499;1260;95224;-80
2023/10/17 10:17:05;;;;;;;40.30;17.70;;;;;;;9.76;68.85;99747.16;105408;1263;179860;-82
2023/10/17 10:20:04;;;;;;;38.80;18.80;;;;;;;9.79;68.95;99744.84;105635;1260;94269;-81
2023/10/17 10:22:59;;;;;;;22.30;9.50;;;;;;;9.87;69.00;99744.69;105424;1260;94427;-81
2023/10/17 10:25:35;;;;;;;16.90;6.50;;;;;;;9.96;68.94;99741.31;105591;1260;106162;-82
2023/10/17 10:28:26;;;;;;;11.20;4.80;;;;;;;10.00;68.85;99739.69;105479;1260;95324;-81
2023/10/17 10:30:58;;;;;;;15.60;4.80;;;;;;;10.06;68.70;99741.63;105608;1271;107488;-80
2023/10/17 10:33:30;;;;;;;14.80;4.90;;;;;;;10.13;68.82;99739.45;105586;1260;95231;-80
2023/10/17 10:36:05;;;;;;;10.10;3.80;;;;;;;10.22;68.68;99738.02;105789;1254;95220;-80
2023/10/17 10:38:32;;;;;;;8.50;3.50;;;;;;;10.28;68.35;99733.22;105745;1253;108668;-81
2023/10/17 10:41:06;;;;;;;11.50;4.30;;;;;;;10.31;68.52;99732.33;105847;1253;95294;-78
2023/10/17 10:43:36;;;;;;;11.80;4.10;;;;;;;10.39;68.56;99728.48;105653;1257;107549;-80
2023/10/17 10:46:11;;;;;;;9.80;3.70;;;;;;;10.47;68.53;99729.30;105396;1254;95249;-81
2023/10/17 10:48:46;;;;;;;9.30;2.90;;;;;;;10.48;68.17;99731.73;105641;1254;95176;-78
2023/10/17 10:51:15;;;;;;;14.30;5.90;;;;;;;10.48;68.03;99731.71;105501;1260;108114;-79
2023/10/17 10:53:44;;;;;;;13.60;5.10;;;;;;;10.45;68.11;99726.20;105872;1254;95693;-81
2023/10/17 10:56:11;;;;;;;18.40;5.90;;;;;;;10.44;68.04;99727.88;105529;1254;107506;-81
2023/10/17 10:59:06;;;;;;;15.80;5.00;;;;;;;10.38;66.93;99729.45;105637;1254;95336;-81
2023/10/17 11:01:35;;;;;;;12.30;4.20;;;;;;;10.30;67.36;99728.13;105071;1260;95214;-81
2023/10/17 11:04:11;;;;;;;13.00;4.30;;;;;;;10.27;67.62;99724.58;105500;1260;108427;-80
2023/10/17 11:06:50;;;;;;;14.90;5.90;;;;;;;10.26;67.28;99720.94;105633;1260;95236;-81
2023/10/17 11:09:24;;;;;;;13.40;4.80;;;;;;;10.24;67.50;99715.73;105761;1257;107212;-79
2023/10/17 11:11:53;;;;;;;12.50;5.00;;;;;;;10.20;67.42;99712.65;105591;1260;96292;-80
2023/10/17 11:14:41;;;;;;;12.40;4.30;;;;;;;10.18;67.52;99706.01;105541;1257;95297;-80
2023/10/17 11:17:26;;;;;;;11.10;4.30;;;;;;;10.20;67.57;99704.98;105500;1257;109210;-80
2023/10/17 11:19:55;;;;;;;9.60;3.80;;;;;;;10.25;67.34;99699.55;105510;1254;95372;-81
2023/10/17 11:22:28;;;;;;;11.70;4.00;;;;;;;10.24;67.47;99693.77;105891;1258;107549;-81
2023/10/17 11:24:55;;;;;;;14.50;4.50;;;;;;;10.24;66.77;99693.08;105658;1254;95226;-80
2023/10/17 11:27:34;;;;;;;13.70;4.40;;;;;;;10.24;67.29;99684.21;105809;1257;95747;-80
2023/10/17 11:30:01;;;;;;;9.30;3.80;;;;;;;10.27;67.27;99681.52;105442;1258;108455;-81
2023/10/17 11:32:31;;;;;;;15.10;4.70;;;;;;;10.30;67.29;99683.86;105651;1254;95267;-77
2023/10/17 11:35:05;;;;;;;15.10;5.60;;;;;;;10.32;67.11;99682.46;105607;1254;107638;-79
2023/10/17 11:37:34;;;;;;;14.70;4.90;;;;;;;10.35;67.09;99679.45;105333;1262;96215;-81
2023/10/17 11:40:25;;;;;;;12.20;4.80;;;;;;;10.40;67.02;99674.57;105473;1260;95203;-81
2023/10/17 11:42:49;;;;;;;13.10;4.90;;;;;;;10.42;66.86;99677.75;105598;1257;108581;-79
2023/10/17 11:45:24;;;;;;;11.50;4.30;;;;;;;10.46;66.96;99672.42;105861;1254;95400;-80
2023/10/17 11:48:14;;;;;;;14.90;5.50;;;;;;;10.50;66.70;99672.35;105785;1257;107249;-80
2023/10/17 11:50:47;;;;;;;12.20;4.20;;;;;;;10.50;66.65;99671.30;105607;1258;95691;-80
2023/10/17 11:53:16;;;;;;;11.60;4.70;;;;;;;10.46;66.58;99666.02;105025;1254;96036;-80
2023/10/17 11:55:47;;;;;;;13.50;4.90;;;;;;;10.42;66.46;99665.07;105771;1254;108334;-81
2023/10/17 11:58:29;;;;;;;;;;;;;;;10.38;66.59;99662.40;105473;1257;96149;-79
2023/10/17 12:00:56;;;;;;;13.50;4.80;;;;;;;10.39;66.36;99664.30;105818;1257;107481;-80
2023/10/17 12:03:26;;;;;;;14.70;5.90;;;;;;;10.38;66.44;99658.56;105547;1270;96765;-81
2023/10/17 12:05:55;;;;;;;16.80;5.60;;;;;;;10.37;66.64;99653.60;105789;1255;95262;-81
2023/10/17 12:08:22;;;;;;;14.20;4.90;;;;;;;10.37;66.44;99653.13;105561;1260;109939;-80
2023/10/17 12:10:50;;;;;;;16.90;4.90;;;;;;;10.34;66.41;99648.16;105523;1259;96260;-81
2023/10/17 12:13:20;;;;;;;19.70;5.60;;;;;;;10.33;66.38;99646.61;105589;1267;107177;-79
2023/10/17 12:15:47;;;;;;;12.40;4.50;;;;;;;10.34;66.26;99644.24;105634;1254;95245;-80
2023/10/17 12:18:14;;;;;;;11.20;4.50;;;;;;;10.32;66.19;99639.77;105660;1259;95336;-80
2023/10/17 12:20:41;;;;;;;14.50;4.70;;;;;;;10.29;66.30;99637.09;105902;1259;95269;-81
2023/10/17 12:23:18;;;;;;;13.10;4.30;;;;;;;10.28;66.04;99637.87;105503;1257;95507;-81
2023/10/17 12:25:49;;;;;;;15.80;5.00;;;;;;;10.30;66.06;99638.10;105495;1254;106955;-80
2023/10/17 12:28:16;;;;;;;15.70;4.90;;;;;;;10.32;65.96;99638.01;105772;1257;95253;-82
2023/10/17 12:30:44;;;;;;;13.20;5.10;;;;;;;10.32;66.08;99634.25;105193;1260;95259;-81
2023/10/17 12:33:11;;;;;;;13.30;4.60;;;;;;;10.32;65.84;99634.95;105709;1254;108074;-80
2023/10/17 12:35:38;;;;;;;12.60;3.80;;;;;;;10.32;65.76;99634.42;105647;1260;95332;-81
2023/10/17 12:38:33;;;;;;;7.70;3.20;;;;;;;10.31;65.66;99633.06;106035;1255;107316;-81
2023/10/17 12:41:26;;;;;;;14.90;4.00;;;;;;;10.30;65.54;99630.65;105453;1257;96213;-80
2023/10/17 12:43:54;;;;;;;12.10;3.70;;;;;;;10.31;65.57;99627.39;105814;1257;95296;-80
2023/10/17 12:46:25;;;;;;;13.00;4.10;;;;;;;10.31;65.48;99626.36;105603;1260;108497;-79
2023/10/17 12:48:52;;;;;;;7.20;3.10;;;;;;;10.30;65.37;99627.84;105872;1254;95327;-81
2023/10/17 12:51:23;;;;;;;6.70;3.00;;;;;;;10.29;65.32;99630.35;105620;1254;95249;-80
2023/10/17 12:53:50;;;;;;;11.80;3.00;;;;;;;10.26;65.08;99624.67;105592;1260;96254;-81
2023/10/17 12:56:24;;;;;;;9.00;3.20;;;;;;;10.26;65.23;99628.58;105891;1254;95306;-77
2023/10/17 12:58:51;;;;;;;9.70;3.50;;;;;;;10.25;65.23;99625.63;105729;1257;107522;-79
2023/10/17 13:01:24;;;;;;;10.70;4.30;;;;;;;10.26;65.34;99621.16;105682;1258;95255;-79
2023/10/17 13:03:57;;;;;;;10.90;4.30;;;;;;;10.26;65.26;99619.02;105750;1264;107493;-82
2023/10/17 13:06:26;;;;;;;15.60;4.80;;;;;;;10.28;65.41;99622.94;105777;1259;95316;-81
2023/10/17 13:08:56;;;;;;;14.80;4.80;;;;;;;10.31;65.41;99621.41;106107;1256;95342;-81
2023/10/17 13:11:27;;;;;;;12.50;4.40;;;;;;;10.34;65.42;99621.04;105837;1255;108792;-79
2023/10/17 13:13:57;;;;;;;13.50;4.40;;;;;;;10.36;65.34;99618.22;105973;1251;95154;-80
2023/10/17 13:16:27;;;;;;;11.50;4.20;;;;;;;10.40;65.27;99614.12;105587;1257;107258;-80
2023/10/17 13:18:56;;;;;;;11.20;4.20;;;;;;;10.43;65.10;99614.96;105887;1257;95976;-80
2023/10/17 13:21:26;;;;;;;13.00;4.70;;;;;;;10.48;65.01;99612.38;106034;1255;96219;-80
2023/10/17 13:23:53;;;;;;;9.80;3.80;;;;;;;10.51;64.99;99607.73;105781;1256;108230;-80
2023/10/17 13:26:21;;;;;;;13.20;4.60;;;;;;;10.52;65.01;99611.25;105612;1257;95325;-80
2023/10/17 13:28:48;;;;;;;11.10;3.80;;;;;;;10.52;64.89;99610.31;105843;1254;107391;-80
2023/10/17 13:31:16;;;;;;;10.80;3.80;;;;;;;10.54;64.98;99610.02;105773;1257;95320;-80
2023/10/17 13:33:49;;;;;;;11.00;3.90;;;;;;;10.56;65.05;99604.21;105948;1254;96264;-80
2023/10/17 13:36:16;;;;;;;11.90;4.80;;;;;;;10.58;64.95;99607.84;105959;1265;108560;-80
2023/10/17 13:38:44;;;;;;;10.90;4.80;;;;;;;10.58;64.86;99602.38;105948;1257;95713;-81
2023/10/17 13:41:15;;;;;;;10.20;4.20;;;;;;;10.58;64.75;99600.05;106201;1251;95318;-80
2023/10/17 13:43:47;;;;;;;11.70;4.50;;;;;;;10.56;64.71;99596.95;105947;1257;95216;-80
2023/10/17 13:46:18;;;;;;;14.30;5.20;;;;;;;10.53;64.69;99596.81;105876;1251;96101;-80
2023/10/17 13:48:48;;;;;;;16.50;5.30;;;;;;;10.52;64.67;99598.29;105760;1257;108412;-80
2023/10/17 13:51:16;;;;;;;10.70;4.20;;;;;;;10.54;64.65;99592.48;106088;1255;96161;-79
2023/10/17 13:53:48;;;;;;;13.10;4.70;;;;;;;10.54;64.65;99585.38;105973;1257;107504;-81
2023/10/17 13:56:20;;;;;;;14.60;4.60;;;;;;;10.54;64.54;99585.23;105973;1256;95336;-80
2023/10/17 13:58:49;;;;;;;10.80;4.20;;;;;;;10.54;64.33;99581.87;105860;1252;95214;-81
2023/10/17 14:01:27;;;;;;;11.10;3.80;;;;;;;10.51;64.24;99581.48;105949;1256;108538;-79
2023/10/17 14:03:56;;;;;;;10.90;4.20;;;;;;;10.48;64.17;99584.35;105846;1257;95504;-80
2023/10/17 14:06:30;;;;;;;9.60;3.90;;;;;;;10.46;64.33;99580.60;106049;1251;107063;-80
2023/10/17 14:09:02;;;;;;;12.20;3.60;;;;;;;10.45;64.21;99576.03;105852;1258;96151;-82
2023/10/17 14:11:35;;;;;;;11.50;4.20;;;;;;;10.45;64.21;99577.11;105879;1254;95228;-81
2023/10/17 14:14:05;;;;;;;19.40;7.60;;;;;;;10.43;64.23;99570.78;105825;1255;108469;-80
2023/10/17 14:16:32;;;;;;;21.00;7.70;;;;;;;10.42;64.19;99567.52;105842;1256;95236;-80
2023/10/17 14:19:13;;;;;;;18.00;6.70;;;;;;;10.38;64.05;99566.34;106518;1257;96757;-81
2023/10/17 14:24:49;;;;;;;16.20;5.20;;;;;;;10.34;63.97;99564.83;106070;1251;97804;-80
2023/10/17 14:27:20;;;;;;;12.80;4.70;;;;;;;10.33;63.89;99561.87;106462;1251;110185;-82
2023/10/17 14:29:50;;;;;;;15.90;5.30;;;;;;;10.33;63.94;99559.56;106185;1256;96626;-80
2023/10/17 14:32:21;;;;;;;14.70;5.50;;;;;;;10.31;63.87;99555.98;107327;1255;107494;-79
2023/10/17 14:34:49;;;;;;;20.50;6.60;;;;;;;10.26;63.64;99551.10;105873;1254;96581;-81
2023/10/17 14:37:20;;;;;;;22.60;9.80;;;;;;;10.24;63.66;99551.48;106014;1257;96641;-81
2023/10/17 14:39:56;;;;;;;20.20;7.80;;;;;;;10.23;63.69;99546.90;106046;1251;109815;-81
2023/10/17 14:42:22;;;;;;;21.50;7.30;;;;;;;10.22;63.69;99549.07;105872;1257;96691;-80
2023/10/17 14:44:55;;;;;;;24.20;8.20;;;;;;;10.20;63.72;99544.06;106268;1254;96602;-79
2023/10/17 14:47:22;;;;;;;26.00;10.60;;;;;;;10.18;63.68;99541.02;106759;1256;96653;-79
2023/10/17 14:49:49;;;;;;;29.90;12.40;;;;;;;10.15;63.57;99541.00;106070;1256;97729;-80
2023/10/17 14:52:19;;;;;;;35.70;17.40;;;;;;;10.10;63.60;99538.83;105954;1257;111002;-81
2023/10/17 14:54:50;;;;;;;40.70;21.10;;;;;;;10.08;63.64;99535.23;105874;1257;96584;-81
2023/10/17 14:57:26;;;;;;;41.10;21.20;;;;;;;10.05;63.61;99529.55;106005;1257;96580;-82
2023/10/17 14:59:54;;;;;;;41.90;20.90;;;;;;;10.01;63.54;99525.26;105829;1251;96565;-82
2023/10/17 15:02:21;;;;;;;36.10;17.50;;;;;;;9.98;63.56;99526.69;106202;1255;96482;-80
2023/10/17 15:04:55;;;;;;;36.10;18.10;;;;;;;9.94;63.60;99527.09;105689;1251;96645;-81
2023/10/17 15:07:25;;;;;;;32.40;14.90;;;;;;;9.92;63.57;99526.36;106059;1252;96580;-81
2023/10/17 15:09:57;;;;;;;31.10;15.30;;;;;;;9.85;63.54;99530.28;105722;1257;108288;-81
2023/10/17 15:12:26;;;;;;;30.40;15.20;;;;;;;9.79;63.57;99525.39;105893;1251;96676;-80
2023/10/17 15:14:55;;;;;;;28.00;13.20;;;;;;;9.75;63.51;99525.95;106098;1251;97617;-80
2023/10/17 15:17:25;;;;;;;32.50;13.40;;;;;;;9.69;63.57;99524.17;105813;1256;110368;-79
2023/10/17 15:19:54;;;;;;;30.90;11.70;;;;;;;9.63;63.53;99524.91;105963;1254;96660;-80
2023/10/17 15:22:21;;;;;;;31.60;12.60;;;;;;;9.57;63.65;99527.07;105570;1257;106864;-80
2023/10/17 15:24:58;;;;;;;31.10;12.40;;;;;;;9.51;63.62;99526.36;105858;1256;97381;-81
2023/10/17 15:27:26;;;;;;;30.80;12.10;;;;;;;9.45;63.54;99526.39;106090;1254;96721;-82
2023/10/17 15:29:53;;;;;;;32.40;14.00;;;;;;;9.39;63.53;99523.70;106033;1251;109900;-81
2023/10/17 15:32:19;;;;;;;32.90;12.60;;;;;;;9.34;63.56;99529.53;105869;1257;96533;-82
2023/10/17 15:34:48;;;;;;;34.40;13.00;;;;;;;9.23;63.57;99532.44;106226;1256;97025;-82
2023/10/17 15:37:17;;;;;;;31.40;13.20;;;;;;;9.15;63.46;99532.21;105799;1259;96593;-83
2023/10/17 15:39:44;;;;;;;30.80;13.40;;;;;;;9.06;63.55;99530.23;106099;1257;97511;-82
2023/10/17 15:42:10;;;;;;;30.70;11.70;;;;;;;8.97;63.50;99533.06;106320;1257;96597;-82
2023/10/17 15:44:37;;;;;;;29.80;11.00;;;;;;;8.90;63.45;99530.71;105751;1257;96599;-82
2023/10/17 15:47:06;;;;;;;28.80;12.40;;;;;;;8.80;63.34;99528.95;106009;1254;107605;-83
2023/10/17 15:49:33;;;;;;;27.10;11.00;;;;;;;8.70;63.44;99531.09;106126;1256;96587;-82
2023/10/17 15:52:00;;;;;;;24.30;10.70;;;;;;;8.59;63.43;99526.95;106091;1251;97837;-82